createdAt,value
2022-09-01T00:01:24.308Z,19.70
2022-09-01T00:03:52.981Z,19.60
2022-09-01T00:06:23.006Z,19.60
2022-09-01T00:08:55.592Z,19.40
2022-09-01T00:11:25.920Z,19.50
2022-09-01T00:13:54.851Z,19.50
2022-09-01T00:16:22.389Z,19.50
2022-09-01T00:18:51.879Z,19.40
2022-09-01T00:21:24.059Z,19.40
2022-09-01T00:23:51.328Z,19.50
2022-09-01T00:26:18.868Z,19.40
2022-09-01T00:28:46.131Z,19.40
2022-09-01T00:31:18.977Z,19.40
2022-09-01T00:33:48.403Z,19.40
2022-09-01T00:36:16.904Z,19.40
2022-09-01T00:38:44.390Z,19.40
2022-09-01T00:41:12.337Z,19.40
2022-09-01T00:43:48.851Z,19.50
2022-09-01T00:46:29.021Z,19.40
2022-09-01T00:49:04.704Z,19.40
2022-09-01T00:51:35.312Z,19.40
2022-09-01T00:54:05.699Z,19.30
2022-09-01T00:56:37.568Z,19.30
2022-09-01T00:59:07.075Z,19.30
2022-09-01T01:01:36.873Z,19.30
2022-09-01T01:04:14.828Z,19.30
2022-09-01T01:06:46.104Z,19.30
2022-09-01T01:09:13.494Z,19.30
2022-09-01T01:11:40.992Z,19.30
2022-09-01T01:14:12.724Z,19.20
2022-09-01T01:16:44.276Z,19.30
2022-09-01T01:19:57.605Z,19.30
2022-09-01T01:23:03.052Z,19.20
2022-09-01T01:25:33.249Z,19.10
2022-09-01T01:28:13.637Z,19.10
2022-09-01T01:30:52.400Z,19.10
2022-09-01T01:33:25.986Z,19.10
2022-09-01T01:35:55.351Z,19.10
2022-09-01T01:38:22.927Z,19.10
2022-09-01T01:40:54.864Z,19.10
2022-09-01T01:43:24.521Z,19.20
2022-09-01T01:45:54.419Z,19.20
2022-09-01T01:48:25.975Z,19.20
2022-09-01T01:50:55.019Z,19.30
2022-09-01T01:53:23.207Z,19.30
2022-09-01T01:55:53.451Z,19.30
2022-09-01T01:58:22.728Z,19.30
2022-09-01T02:00:52.249Z,19.20
2022-09-01T02:03:25.085Z,19.30
2022-09-01T02:05:55.155Z,19.30
2022-09-01T02:08:26.108Z,19.20
2022-09-01T02:10:55.561Z,19.20
2022-09-01T02:13:31.014Z,19.20
2022-09-01T02:16:04.278Z,19.10
2022-09-01T02:18:36.122Z,19.10
2022-09-01T02:21:16.301Z,19.10
2022-09-01T02:23:44.032Z,19.00
2022-09-01T02:26:16.623Z,19.10
2022-09-01T02:28:54.302Z,19.00
2022-09-01T02:31:28.028Z,18.90
2022-09-01T02:33:56.766Z,19.00
2022-09-01T02:36:25.754Z,18.90
2022-09-01T02:38:56.391Z,18.80
2022-09-01T02:41:25.330Z,18.70
2022-09-01T02:43:54.208Z,18.70
2022-09-01T02:46:24.580Z,18.70
2022-09-01T02:48:53.322Z,18.70
2022-09-01T02:51:25.700Z,18.70
2022-09-01T02:53:53.868Z,18.70
2022-09-01T02:56:25.250Z,18.70
2022-09-01T02:58:54.147Z,18.60
2022-09-01T03:01:25.714Z,18.50
2022-09-01T03:03:57.357Z,18.50
2022-09-01T03:06:25.927Z,18.40
2022-09-01T03:08:55.363Z,18.50
2022-09-01T03:11:24.347Z,18.50
2022-09-01T03:13:52.342Z,18.30
2022-09-01T03:16:20.075Z,18.20
2022-09-01T03:18:47.383Z,18.20
2022-09-01T03:21:16.200Z,18.10
2022-09-01T03:23:46.197Z,18.00
2022-09-01T03:26:15.090Z,18.00
2022-09-01T03:28:42.840Z,18.00
2022-09-01T03:31:10.325Z,17.90
2022-09-01T03:33:38.143Z,17.90
2022-09-01T03:36:19.135Z,17.90
2022-09-01T03:38:49.363Z,17.90
2022-09-01T03:41:25.120Z,17.90
2022-09-01T03:43:56.819Z,17.90
2022-09-01T03:46:24.796Z,17.80
2022-09-01T03:48:55.579Z,17.80
2022-09-01T03:51:24.394Z,17.70
2022-09-01T03:53:55.015Z,17.70
2022-09-01T03:56:25.708Z,17.80
2022-09-01T03:58:54.953Z,17.70
2022-09-01T04:01:22.668Z,17.70
2022-09-01T04:03:52.318Z,17.70
2022-09-01T04:06:24.378Z,17.70
2022-09-01T04:09:03.255Z,17.70
2022-09-01T04:11:33.873Z,17.70
2022-09-01T04:14:02.059Z,17.70
2022-09-01T04:16:53.430Z,17.60
2022-09-01T04:19:27.236Z,17.70
2022-09-01T04:22:00.283Z,17.70
2022-09-01T04:24:34.850Z,17.70
2022-09-01T04:27:03.792Z,17.70
2022-09-01T04:29:31.854Z,17.70
2022-09-01T04:32:05.673Z,17.60
2022-09-01T04:34:41.742Z,17.60
2022-09-01T04:37:15.075Z,17.50
2022-09-01T04:39:53.742Z,17.50
2022-09-01T04:42:24.507Z,17.40
2022-09-01T04:44:53.899Z,17.40
2022-09-01T04:47:35.288Z,17.30
2022-09-01T04:50:14.011Z,17.30
2022-09-01T04:52:48.022Z,17.30
2022-09-01T04:55:31.027Z,17.30
2022-09-01T04:58:00.835Z,17.30
2022-09-01T05:00:32.301Z,17.30
2022-09-01T05:03:05.943Z,17.40
2022-09-01T05:05:54.225Z,17.40
2022-09-01T05:08:24.605Z,17.30
2022-09-01T05:10:56.797Z,17.30
2022-09-01T05:13:40.695Z,17.30
2022-09-01T05:16:13.249Z,17.30
2022-09-01T05:18:47.844Z,17.30
2022-09-01T05:21:18.677Z,17.20
2022-09-01T05:23:47.051Z,17.10
2022-09-01T05:26:18.740Z,17.10
2022-09-01T05:28:53.973Z,17.10
2022-09-01T05:31:23.182Z,17.20
2022-09-01T05:33:50.958Z,17.10
2022-09-01T05:36:21.266Z,17.20
2022-09-01T05:38:52.514Z,17.20
2022-09-01T05:41:21.138Z,17.20
2022-09-01T05:43:55.114Z,17.30
2022-09-01T05:46:28.453Z,17.30
2022-09-01T05:48:57.625Z,17.40
2022-09-01T05:51:43.901Z,17.40
2022-09-01T05:54:12.565Z,17.50
2022-09-01T05:56:43.710Z,17.60
2022-09-01T05:59:23.422Z,17.60
2022-09-01T06:01:53.796Z,17.60
2022-09-01T06:04:22.952Z,17.60
2022-09-01T06:07:10.237Z,17.70
2022-09-01T06:09:47.914Z,17.80
2022-09-01T06:12:18.891Z,17.90
2022-09-01T06:14:48.568Z,18.00
2022-09-01T06:17:19.554Z,18.10
2022-09-01T06:19:46.876Z,18.20
2022-09-01T06:22:15.446Z,18.30
2022-09-01T06:24:43.558Z,18.40
2022-09-01T06:27:12.604Z,18.50
2022-09-01T06:29:41.784Z,18.60
2022-09-01T06:32:10.406Z,18.70
2022-09-01T06:34:42.794Z,18.80
2022-09-01T06:37:12.976Z,18.80
2022-09-01T06:39:44.169Z,18.90
2022-09-01T06:42:13.057Z,19.00
2022-09-01T06:44:57.911Z,19.40
2022-09-01T06:47:28.538Z,20.10
2022-09-01T06:49:59.511Z,20.60
2022-09-01T06:52:28.761Z,21.20
2022-09-01T06:55:16.942Z,21.60
2022-09-01T06:58:14.042Z,21.80
2022-09-01T07:00:44.168Z,21.70
2022-09-01T07:03:14.148Z,21.40
2022-09-01T07:06:59.016Z,21.20
2022-09-01T07:09:47.271Z,21.10
2022-09-01T07:13:06.279Z,21.10
2022-09-01T07:18:27.361Z,21.00
2022-09-01T07:21:38.763Z,20.80
2022-09-01T07:26:35.393Z,20.90
2022-09-01T07:34:47.737Z,21.30
2022-09-01T07:43:22.431Z,21.60
2022-09-01T07:49:03.212Z,21.70
2022-09-01T07:51:52.093Z,21.80
2022-09-01T07:54:25.194Z,21.90
2022-09-01T07:56:55.540Z,22.00
2022-09-01T07:59:23.998Z,22.10
2022-09-01T08:01:58.019Z,22.20
2022-09-01T08:04:26.664Z,22.30
2022-09-01T08:06:56.083Z,22.40
2022-09-01T08:09:37.451Z,22.60
2022-09-01T08:12:08.592Z,22.70
2022-09-01T08:14:40.442Z,22.80
2022-09-01T08:19:58.442Z,23.00
2022-09-01T08:22:45.412Z,23.10
2022-09-01T08:25:22.927Z,23.20
2022-09-01T08:27:59.865Z,23.30
2022-09-01T08:30:28.408Z,23.40
2022-09-01T08:32:56.048Z,23.50
2022-09-01T08:35:23.933Z,23.60
2022-09-01T08:37:52.577Z,23.50
2022-09-01T08:40:23.053Z,23.80
2022-09-01T08:43:15.320Z,23.80
2022-09-01T08:45:43.230Z,23.80
2022-09-01T08:51:23.723Z,23.80
2022-09-01T08:54:11.371Z,23.90
2022-09-01T08:56:39.490Z,23.90
2022-09-01T08:59:09.743Z,23.90
2022-09-01T09:02:06.383Z,24.00
2022-09-01T09:05:21.121Z,24.10
2022-09-01T09:08:08.163Z,24.20
2022-09-01T09:10:59.306Z,24.30
2022-09-01T09:14:07.494Z,24.50
2022-09-01T09:16:51.622Z,24.70
2022-09-01T09:19:26.113Z,24.90
2022-09-01T09:21:55.217Z,24.90
2022-09-01T09:24:50.386Z,25.00
2022-09-01T09:27:20.696Z,25.00
2022-09-01T09:29:51.003Z,25.00
2022-09-01T09:32:22.850Z,25.00
2022-09-01T09:34:51.832Z,25.00
2022-09-01T09:37:29.602Z,25.10
2022-09-01T09:40:10.016Z,25.30
2022-09-01T09:43:02.724Z,25.50
2022-09-01T09:45:34.839Z,25.50
2022-09-01T09:48:30.636Z,25.60
2022-09-01T09:51:22.548Z,25.60
2022-09-01T09:53:49.931Z,25.70
2022-09-01T09:56:20.699Z,25.80
2022-09-01T09:58:50.036Z,25.90
2022-09-01T10:01:23.123Z,25.90
2022-09-01T10:03:54.206Z,25.90
2022-09-01T10:06:34.848Z,26.00
2022-09-01T10:09:22.233Z,26.20
2022-09-01T10:11:53.032Z,26.30
2022-09-01T10:14:35.567Z,26.40
2022-09-01T10:17:16.359Z,26.30
2022-09-01T10:20:05.599Z,26.50
2022-09-01T10:22:33.839Z,26.60
2022-09-01T10:25:01.057Z,26.60
2022-09-01T10:27:32.422Z,26.60
2022-09-01T10:30:13.936Z,26.60
2022-09-01T10:33:07.975Z,26.60
2022-09-01T10:35:45.298Z,26.40
2022-09-01T10:38:20.121Z,26.50
2022-09-01T10:41:07.749Z,26.40
2022-09-01T10:43:43.752Z,26.30
2022-09-01T10:46:24.743Z,26.30
2022-09-01T10:48:56.312Z,26.40
2022-09-01T10:51:35.415Z,26.50
2022-09-01T10:54:05.718Z,26.50
2022-09-01T10:56:53.460Z,26.70
2022-09-01T10:59:33.692Z,26.90
2022-09-01T11:02:35.246Z,27.10
2022-09-01T11:05:01.053Z,27.30
2022-09-01T11:07:58.252Z,27.20
2022-09-01T11:10:34.304Z,27.20
2022-09-01T11:13:22.812Z,27.20
2022-09-01T11:15:50.842Z,27.20
2022-09-01T11:18:27.599Z,27.10
2022-09-01T11:20:56.266Z,27.10
2022-09-01T11:23:29.454Z,27.10
2022-09-01T11:26:49.377Z,27.10
2022-09-01T11:29:56.430Z,27.20
2022-09-01T11:32:32.332Z,27.30
2022-09-01T11:35:02.634Z,27.30
2022-09-01T11:37:31.026Z,27.20
2022-09-01T11:40:07.868Z,27.30
2022-09-01T11:42:43.741Z,27.30
2022-09-01T11:45:21.615Z,27.40
2022-09-01T11:48:02.467Z,27.30
2022-09-01T11:50:37.433Z,27.20
2022-09-01T11:53:08.815Z,27.20
2022-09-01T11:55:40.252Z,27.30
2022-09-01T11:58:34.493Z,27.30
2022-09-01T12:01:40.689Z,27.50
2022-09-01T12:04:27.643Z,27.50
2022-09-01T12:07:24.474Z,27.60
2022-09-01T12:09:51.953Z,27.60
2022-09-01T12:12:30.192Z,27.60
2022-09-01T12:15:05.813Z,27.60
2022-09-01T12:17:35.027Z,27.70
2022-09-01T12:20:25.521Z,27.70
2022-09-01T12:22:56.608Z,27.80
2022-09-01T12:25:28.557Z,27.80
2022-09-01T12:27:56.369Z,27.80
2022-09-01T12:30:26.055Z,27.90
2022-09-01T12:33:22.782Z,27.80
2022-09-01T12:35:41.949Z,27.80
2022-09-01T12:38:21.200Z,27.80
2022-09-01T12:40:52.494Z,27.70
2022-09-01T12:43:30.039Z,27.60
2022-09-01T12:46:00.174Z,27.70
2022-09-01T12:48:36.782Z,27.70
2022-09-01T12:51:29.405Z,27.70
2022-09-01T12:54:04.798Z,27.80
2022-09-01T12:56:34.374Z,27.80
2022-09-01T12:59:37.613Z,28.00
2022-09-01T13:02:27.901Z,27.90
2022-09-01T13:05:15.852Z,27.80
2022-09-01T13:07:43.068Z,27.70
2022-09-01T13:10:10.151Z,27.90
2022-09-01T13:12:45.080Z,27.90
2022-09-01T13:17:41.951Z,27.90
2022-09-01T13:20:12.179Z,27.90
2022-09-01T13:22:42.008Z,27.90
2022-09-01T13:25:10.844Z,27.90
2022-09-01T13:27:38.524Z,27.90
2022-09-01T13:30:07.756Z,28.00
2022-09-01T13:32:35.065Z,28.00
2022-09-01T13:35:02.613Z,28.00
2022-09-01T13:37:30.495Z,27.90
2022-09-01T13:39:57.899Z,27.80
2022-09-01T13:42:28.516Z,27.80
2022-09-01T13:44:57.067Z,27.90
2022-09-01T13:47:29.164Z,27.70
2022-09-01T13:50:06.930Z,27.70
2022-09-01T13:52:34.830Z,27.80
2022-09-01T13:55:02.230Z,27.90
2022-09-01T13:57:31.545Z,27.90
2022-09-01T14:00:12.459Z,27.90
2022-09-01T14:02:43.037Z,27.90
2022-09-01T14:05:10.553Z,28.00
2022-09-01T14:07:37.814Z,27.90
2022-09-01T14:10:07.194Z,27.80
2022-09-01T14:12:34.713Z,27.80
2022-09-01T14:15:19.797Z,27.70
2022-09-01T14:17:51.886Z,27.60
2022-09-01T14:20:25.525Z,27.50
2022-09-01T14:22:53.221Z,27.50
2022-09-01T14:25:21.401Z,27.50
2022-09-01T14:27:49.719Z,27.50
2022-09-01T14:30:24.138Z,27.30
2022-09-01T14:32:53.608Z,27.30
2022-09-01T14:35:26.378Z,27.40
2022-09-01T14:37:54.380Z,27.50
2022-09-01T14:40:24.296Z,27.50
2022-09-01T14:42:53.227Z,27.30
2022-09-01T14:45:24.067Z,27.30
2022-09-01T14:47:54.211Z,27.30
2022-09-01T14:50:23.192Z,27.40
2022-09-01T14:52:53.734Z,27.40
2022-09-01T14:55:26.654Z,27.40
2022-09-01T14:57:55.098Z,27.30
2022-09-01T15:00:25.110Z,27.20
2022-09-01T15:02:53.959Z,27.20
2022-09-01T15:05:21.796Z,27.10
2022-09-01T15:07:49.366Z,27.10
2022-09-01T15:10:24.796Z,27.00
2022-09-01T15:13:01.087Z,27.00
2022-09-01T15:15:30.003Z,27.00
2022-09-01T15:17:59.094Z,27.10
2022-09-01T15:20:45.389Z,27.10
2022-09-01T15:23:21.778Z,27.10
2022-09-01T15:25:52.101Z,27.00
2022-09-01T15:28:19.660Z,26.80
2022-09-01T15:30:47.119Z,26.80
2022-09-01T15:33:16.076Z,26.80
2022-09-01T15:35:45.054Z,26.80
2022-09-01T15:38:18.077Z,26.70
2022-09-01T15:40:51.989Z,26.70
2022-09-01T15:43:26.290Z,26.60
2022-09-01T15:45:53.937Z,26.50
2022-09-01T15:48:21.199Z,26.50
2022-09-01T15:50:48.460Z,26.40
2022-09-01T15:53:15.856Z,26.40
2022-09-01T15:55:46.471Z,26.40
2022-09-01T15:58:16.677Z,26.40
2022-09-01T16:00:44.781Z,26.30
2022-09-01T16:03:12.596Z,26.10
2022-09-01T16:05:41.160Z,26.10
2022-09-01T16:08:11.375Z,26.10
2022-09-01T16:10:40.207Z,25.90
2022-09-01T16:13:08.245Z,25.80
2022-09-01T16:15:41.243Z,25.50
2022-09-01T16:18:23.396Z,25.60
2022-09-01T16:21:14.841Z,25.50
2022-09-01T16:23:48.894Z,25.40
2022-09-01T16:26:18.024Z,25.50
2022-09-01T16:28:51.897Z,25.40
2022-09-01T16:31:25.719Z,25.40
2022-09-01T16:33:56.393Z,25.40
2022-09-01T16:36:31.759Z,25.40
2022-09-01T16:39:06.898Z,25.40
2022-09-01T16:42:13.445Z,25.20
2022-09-01T16:45:08.259Z,25.20
2022-09-01T16:47:35.676Z,25.20
2022-09-01T16:50:27.033Z,25.10
2022-09-01T16:53:15.126Z,25.00
2022-09-01T16:56:08.136Z,25.00
2022-09-01T16:58:49.165Z,25.00
2022-09-01T17:01:27.030Z,25.00
2022-09-01T17:04:05.655Z,25.00
2022-09-01T17:06:51.072Z,24.90
2022-09-01T17:09:26.136Z,24.90
2022-09-01T17:12:11.872Z,24.80
2022-09-01T17:14:47.458Z,24.70
2022-09-01T17:17:21.331Z,24.70
2022-09-01T17:19:52.643Z,24.70
2022-09-01T17:22:21.652Z,24.60
2022-09-01T17:24:55.068Z,24.60
2022-09-01T17:27:28.354Z,24.50
2022-09-01T17:29:57.251Z,24.50
2022-09-01T17:32:50.964Z,24.50
2022-09-01T17:35:38.843Z,24.40
2022-09-01T17:38:33.801Z,24.30
2022-09-01T17:41:34.417Z,24.30
2022-09-01T17:44:12.621Z,24.30
2022-09-01T17:47:07.107Z,24.20
2022-09-01T17:49:58.233Z,24.20
2022-09-01T17:52:52.606Z,24.10
2022-09-01T17:55:44.483Z,24.10
2022-09-01T17:58:22.726Z,24.00
2022-09-01T18:01:01.672Z,23.90
2022-09-01T18:03:51.403Z,23.90
2022-09-01T18:06:40.255Z,23.90
2022-09-01T18:09:08.683Z,23.80
2022-09-01T18:11:53.582Z,23.80
2022-09-01T18:15:13.594Z,23.70
2022-09-01T18:17:42.677Z,23.70
2022-09-01T18:20:16.590Z,23.60
2022-09-01T18:23:08.321Z,23.60
2022-09-01T18:25:42.555Z,23.60
2022-09-01T18:28:10.227Z,23.40
2022-09-01T18:30:53.363Z,23.40
2022-09-01T18:33:25.729Z,23.30
2022-09-01T18:36:23.892Z,23.20
2022-09-01T18:38:59.136Z,23.20
2022-09-01T18:41:33.898Z,23.10
2022-09-01T18:44:40.291Z,23.10
2022-09-01T18:47:34.409Z,23.00
2022-09-01T18:50:13.025Z,23.00
2022-09-01T18:52:57.796Z,22.90
2022-09-01T18:55:40.224Z,22.90
2022-09-01T18:58:22.361Z,22.90
2022-09-01T19:01:04.237Z,22.80
2022-09-01T19:03:58.493Z,22.70
2022-09-01T19:06:38.804Z,22.70
2022-09-01T19:09:33.961Z,22.70
2022-09-01T19:12:15.989Z,22.70
2022-09-01T19:14:56.797Z,22.70
2022-09-01T19:17:45.039Z,22.60
2022-09-01T19:20:17.210Z,22.60
2022-09-01T19:22:55.035Z,22.60
2022-09-01T19:25:38.440Z,22.60
2022-09-01T19:28:31.733Z,22.60
2022-09-01T19:31:24.009Z,22.50
2022-09-01T19:33:57.387Z,22.50
2022-09-01T19:36:38.083Z,22.40
2022-09-01T19:39:09.639Z,22.40
2022-09-01T19:42:04.288Z,22.40
2022-09-01T19:44:42.203Z,22.30
2022-09-01T19:47:18.483Z,22.30
2022-09-01T19:50:09.300Z,22.30
2022-09-01T19:53:00.716Z,22.20
2022-09-01T19:55:33.393Z,22.20
2022-09-01T19:58:41.768Z,22.10
2022-09-01T20:01:14.328Z,22.10
2022-09-01T20:03:50.587Z,22.10
2022-09-01T20:06:51.015Z,22.00
2022-09-01T20:09:41.124Z,22.00
2022-09-01T20:12:20.905Z,22.00
2022-09-01T20:15:09.303Z,22.00
2022-09-01T20:17:46.331Z,21.90
2022-09-01T20:20:24.295Z,21.80
2022-09-01T20:23:03.069Z,21.80
2022-09-01T20:25:39.420Z,21.80
2022-09-01T20:28:25.657Z,21.70
2022-09-01T20:31:03.160Z,21.70
2022-09-01T20:33:57.255Z,21.70
2022-09-01T20:36:41.652Z,21.60
2022-09-01T20:39:39.912Z,21.60
2022-09-01T20:42:19.763Z,21.60
2022-09-01T20:44:58.879Z,21.60
2022-09-01T20:47:30.737Z,21.50
2022-09-01T20:50:00.292Z,21.50
2022-09-01T20:52:43.726Z,21.50
2022-09-01T20:55:16.352Z,21.60
2022-09-01T20:57:55.087Z,21.50
2022-09-01T21:00:25.977Z,21.50
2022-09-01T21:03:02.993Z,21.60
2022-09-01T21:06:10.511Z,21.50
2022-09-01T21:08:57.580Z,21.50
2022-09-01T21:11:36.644Z,21.50
2022-09-01T21:14:14.294Z,21.50
2022-09-01T21:16:52.979Z,21.50
2022-09-01T21:19:26.200Z,21.50
2022-09-01T21:22:05.650Z,21.50
2022-09-01T21:24:33.348Z,21.40
2022-09-01T21:27:05.140Z,21.40
2022-09-01T21:29:44.242Z,21.30
2022-09-01T21:32:13.864Z,21.40
2022-09-01T21:34:41.136Z,21.30
2022-09-01T21:37:08.444Z,21.30
2022-09-01T21:39:37.562Z,21.20
2022-09-01T21:42:07.837Z,21.30
2022-09-01T21:44:35.776Z,21.20
2022-09-01T21:47:03.451Z,21.20
2022-09-01T21:49:30.790Z,21.20
2022-09-01T21:52:00.796Z,21.10
2022-09-01T21:54:27.941Z,21.10
2022-09-01T21:56:55.146Z,21.00
2022-09-01T21:59:22.549Z,21.00
2022-09-01T22:01:49.846Z,20.90
2022-09-01T22:04:18.503Z,20.90
2022-09-01T22:06:46.783Z,20.90
2022-09-01T22:09:20.513Z,20.90
2022-09-01T22:11:49.332Z,20.90
2022-09-01T22:14:16.918Z,20.90
2022-09-01T22:16:44.630Z,20.90
2022-09-01T22:19:12.112Z,20.90
2022-09-01T22:21:40.153Z,21.00
2022-09-01T22:24:07.951Z,21.00
2022-09-01T22:26:36.161Z,21.00
2022-09-01T22:29:05.862Z,20.90
2022-09-01T22:31:35.510Z,20.90
2022-09-01T22:34:03.499Z,21.00
2022-09-01T22:36:49.737Z,20.90
2022-09-01T22:39:18.604Z,20.90
2022-09-01T22:41:47.384Z,20.90
2022-09-01T22:44:14.519Z,20.90
2022-09-01T22:46:42.167Z,20.80
2022-09-01T22:49:10.276Z,20.70
2022-09-01T22:51:40.531Z,20.70
2022-09-01T22:54:08.922Z,20.70
2022-09-01T22:56:39.496Z,20.60
2022-09-01T22:59:10.781Z,20.50
2022-09-01T23:01:42.032Z,20.50
2022-09-01T23:04:11.888Z,20.40
2022-09-01T23:06:46.614Z,20.40
2022-09-01T23:09:14.801Z,20.40
2022-09-01T23:11:42.577Z,20.30
2022-09-01T23:14:09.989Z,20.30
2022-09-01T23:16:37.559Z,20.30
2022-09-01T23:19:05.781Z,20.30
2022-09-01T23:21:36.378Z,20.20
2022-09-01T23:24:04.460Z,20.10
2022-09-01T23:26:32.594Z,20.10
2022-09-01T23:28:59.835Z,20.10
2022-09-01T23:31:30.507Z,20.10
2022-09-01T23:33:58.047Z,20.10
2022-09-01T23:36:27.528Z,20.00
2022-09-01T23:38:55.937Z,20.00
2022-09-01T23:41:28.909Z,19.90
2022-09-01T23:43:56.951Z,19.90
2022-09-01T23:46:30.296Z,20.00
2022-09-01T23:48:57.621Z,19.90
2022-09-01T23:51:25.581Z,19.90
2022-09-01T23:53:53.508Z,19.90
2022-09-01T23:56:26.201Z,19.80
2022-09-01T23:58:53.727Z,19.90
